Latest Coastal Weather Observations for Sydney Harbour

IDN60701

Issued at 8:35 pm EDT Saturday 25 October 2014 (issued every 10 minutes, with the page automatically refreshed every 10 minutes)

About coastal observations | Map of coastal stations | Coastal observations for NSW | Marine services | Other Formats
Station Details ID: 066196 Name: WEDDING CAKE WEST Lat: -33.84 Lon: 151.26 Height: 6.0 m
Data from the previous 72 hours. | See also: Recent months for locations in New South Wales
Date/Time
EDT
Temp

°C
Wind Pressure Rain
since 9am
mm
Weather Cloud Vis
km
Sea
Height
m
Swell
Dir
 
Speed
knots
Gust
knots
hPa Trend Height
m
Period
s
Dir
25/08:30pm 20.0 S 9 11 - - - - - - - - - -
25/08:00pm 20.0 S 11 15 - - - - - - - - - -
25/07:30pm 20.0 SSW 11 12 - - - - - - - - - -
25/07:00pm 20.1 S 11 18 - - - - - - - - - -
25/06:30pm 20.0 S 13 16 - - - - - - - - - -
25/06:00pm 20.2 S 14 18 - - - - - - - - - -
25/05:30pm 20.1 S 13 18 - - - - - - - - - -
25/05:00pm 20.4 S 14 19 - - - - - - - - - -
25/04:30pm 20.7 S 12 16 - - - - - - - - - -
25/04:00pm 20.8 SSE 13 16 - - - - - - - - - -
25/03:30pm 20.8 S 13 17 - - - - - - - - - -
25/03:00pm 20.8 S 13 16 - - - - - - - - - -
25/02:30pm 21.5 SSE 15 18 - - - - - - - - - -
25/02:00pm 22.0 SSE 13 17 - - - - - - - - - -
25/01:30pm 22.1 SSE 16 21 - - - - - - - - - -
25/01:00pm 22.4 SSE 18 22 - - - - - - - - - -
25/12:30pm 23.5 SSE 15 18 - - - - - - - - - -
25/12:00pm 23.9 S 11 14 - - - - - - - - - -
25/11:30am 24.5 S 9 11 - - - - - - - - - -
25/11:00am 23.7 S 9 11 - - - - - - - - - -
25/10:30am 23.6 SW 6 8 - - - - - - - - - -
25/10:00am 22.8 WSW 9 13 - - - - - - - - - -
25/09:30am 21.7 WSW 12 14 - - - - - - - - - -
25/09:00am 21.1 WSW 7 8 - - - - - - - - - -
25/08:30am 19.4 WSW 6 8 - - - - - - - - - -
25/08:00am 18.3 WSW 6 8 - - - - - - - - - -
25/07:30am 18.1 W 7 11 - - - - - - - - - -
25/07:00am 18.1 WSW 7 9 - - - - - - - - - -
25/06:30am 18.1 WSW 6 8 - - - - - - - - - -
25/06:00am 18.2 WSW 5 7 - - - - - - - - - -
25/05:30am 18.6 WSW 4 6 - - - - - - - - - -
25/05:00am 18.8 WSW 5 6 - - - - - - - - - -
25/04:30am 18.8 WSW 5 6 - - - - - - - - - -
25/04:00am 18.8 WSW 5 6 - - - - - - - - - -
25/03:30am 18.9 WSW 4 5 - - - - - - - - - -
25/03:00am 19.0 WSW 3 5 - - - - - - - - - -
25/02:30am 19.4 SW 6 7 - - - - - - - - - -
25/02:00am 19.4 SSW 5 6 - - - - - - - - - -
25/01:30am 19.3 SSW 4 5 - - - - - - - - - -
25/01:00am 19.8 SSW 4 6 - - - - - - - - - -
25/12:30am 20.1 S 2 5 - - - - - - - - - -
25/12:00am 19.8 S 5 8 - - - - - - - - - -
 
Date/Time
EDT
Temp

°C
Wind Pressure Rain
since 9am
mm
Weather Cloud Vis
km
Sea
Height
m
Swell
Dir
 
Speed
knots
Gust
knots
hPa Trend Height
m
Period
s
Dir
24/11:30pm 20.1 NNE 7 9 - - - - - - - - - -
24/11:00pm 20.2 NNE 9 10 - - - - - - - - - -
24/10:30pm 20.3 NNE 9 11 - - - - - - - - - -
24/10:00pm 20.7 N 13 22 - - - - - - - - - -
24/09:30pm 20.1 NNE 19 22 - - - - - - - - - -
24/09:00pm 20.1 NNE 21 25 - - - - - - - - - -
24/08:30pm 20.2 NNE 21 25 - - - - - - - - - -
24/08:00pm 20.3 NNE 20 24 - - - - - - - - - -
24/07:30pm 20.4 NNE 23 27 - - - - - - - - - -
24/07:00pm 20.6 NNE 24 29 - - - - - - - - - -
24/06:30pm 20.4 NNE 21 27 - - - - - - - - - -
24/06:00pm 20.3 NNE 20 25 - - - - - - - - - -
24/05:30pm 20.3 NNE 20 25 - - - - - - - - - -
24/05:00pm 20.3 NNE 22 27 - - - - - - - - - -
24/04:30pm 20.3 NNE 21 25 - - - - - - - - - -
24/04:00pm 20.2 NNE 21 27 - - - - - - - - - -
24/03:30pm 19.8 NNE 23 28 - - - - - - - - - -
24/03:00pm 20.0 NNE 19 24 - - - - - - - - - -
24/02:30pm 20.0 NNE 18 21 - - - - - - - - - -
24/02:00pm 19.9 NNE 18 23 - - - - - - - - - -
24/01:30pm 20.3 NE 17 20 - - - - - - - - - -
24/01:00pm 20.1 NNE 16 18 - - - - - - - - - -
24/12:30pm 21.2 NNE 11 13 - - - - - - - - - -
24/12:00pm 20.7 NNE 13 14 - - - - - - - - - -
24/11:30am 19.9 N 5 7 - - - - - - - - - -
24/11:00am 20.5 E 11 12 - - - - - - - - - -
24/10:30am 22.0 NW 4 6 - - - - - - - - - -
24/10:00am 21.3 NNE 5 7 - - - - - - - - - -
24/09:30am 20.9 N 8 10 - - - - - - - - - -
24/09:00am 20.5 N 9 11 - - - - - - - - - -
24/08:30am 19.8 N 8 10 - - - - - - - - - -
24/08:00am 19.6 NE 3 8 - - - - - - - - - -
24/07:30am 19.1 E 9 12 - - - - - - - - - -
24/07:00am 18.9 SSE 5 7 - - - - - - - - - -
24/06:30am 19.0 SE 6 7 - - - - - - - - - -
24/06:00am 18.9 ENE 6 7 - - - - - - - - - -
24/05:30am 19.0 WSW 6 7 - - - - - - - - - -
24/05:00am 19.2 NNE 6 7 - - - - - - - - - -
24/04:30am 19.1 W 7 9 - - - - - - - - - -
24/04:00am 19.6 W 9 12 - - - - - - - - - -
24/03:30am 19.5 NNE 9 11 - - - - - - - - - -
24/03:00am 19.5 ENE 8 10 - - - - - - - - - -
24/02:30am 19.5 E 7 9 - - - - - - - - - -
24/02:00am 19.4 S 7 8 - - - - - - - - - -
24/01:30am 19.5 S 6 7 - - - - - - - - - -
24/01:00am 19.3 SE 5 6 - - - - - - - - - -
24/12:30am 18.9 E 4 5 - - - - - - - - - -
24/12:00am 19.1 E 3 4 - - - - - - - - - -
 
Date/Time
EDT
Temp

°C
Wind Pressure Rain
since 9am
mm
Weather Cloud Vis
km
Sea
Height
m
Swell
Dir
 
Speed
knots
Gust
knots
hPa Trend Height
m
Period
s
Dir
23/11:30pm 19.5 CALM 0 0 - - - - - - - - - -
23/11:00pm 19.7 CALM 0 0 - - - - - - - - - -
23/10:30pm 19.7 E 2 4 - - - - - - - - - -
23/10:00pm 19.7 E 7 9 - - - - - - - - - -
23/09:30pm 19.8 E 5 7 - - - - - - - - - -
23/09:00pm 19.3 E 3 4 - - - - - - - - - -
23/08:30pm 19.6 CALM 0 0 - - - - - - - - - -
23/08:00pm 19.7 E 2 4 - - - - - - - - - -
23/07:30pm 19.6 E 4 4 - - - - - - - - - -
23/07:00pm 19.9 ENE 1 5 - - - - - - - - - -
23/06:30pm 20.2 E 5 5 - - - - - - - - - -
23/06:00pm 20.8 E 6 7 - - - - - - - - - -
23/05:30pm 20.2 ENE 4 5 - - - - - - - - - -
23/05:00pm 21.4 NE 2 6 - - - - - - - - - -
23/04:30pm 20.1 ENE 4 5 - - - - - - - - - -
23/04:00pm 20.3 ENE 7 8 - - - - - - - - - -
23/03:30pm 20.0 ENE 6 7 - - - - - - - - - -
23/03:00pm 20.5 ENE 7 8 - - - - - - - - - -
23/02:30pm 20.2 ENE 7 8 - - - - - - - - - -
23/02:00pm 20.0 ENE 7 10 - - - - - - - - - -
23/01:30pm 21.0 ENE 6 7 - - - - - - - - - -
23/01:00pm 20.1 NE 6 7 - - - - - - - - - -
23/12:30pm 20.0 NE 6 7 - - - - - - - - - -
23/12:00pm 19.6 ENE 7 9 - - - - - - - - - -
23/11:30am 19.5 E 6 7 - - - - - - - - - -
23/11:00am 19.9 ESE 5 6 - - - - - - - - - -
23/10:30am 21.3 CALM 0 0 - - - - - - - - - -
23/10:00am 20.9 ESE 3 4 - - - - - - - - - -
23/09:30am 18.8 ESE 5 6 - - - - - - - - - -
23/09:00am 18.1 ESE 2 3 - - - - - - - - - -
23/08:30am 17.9 NNE 4 5 - - - - - - - - - -
23/08:00am 17.9 CALM 0 0 - - - - - - - - - -
23/07:30am 16.5 N 3 5 - - - - - - - - - -
23/07:00am 16.1 N 2 4 - - - - - - - - - -
23/06:30am 16.0 N 5 6 - - - - - - - - - -
23/06:00am 15.7 N 5 6 - - - - - - - - - -
23/05:30am 16.0 N 5 6 - - - - - - - - - -
23/05:00am 15.9 CALM 0 4 - - - - - - - - - -
23/04:30am 16.0 NW 4 5 - - - - - - - - - -
23/04:00am 16.4 CALM 0 0 - - - - - - - - - -
23/03:30am 16.6 N 6 7 - - - - - - - - - -
23/03:00am 16.7 N 6 7 - - - - - - - - - -
23/02:30am 17.0 N 5 7 - - - - - - - - - -
23/02:00am 17.1 N 5 6 - - - - - - - - - -
23/01:30am 17.4 N 7 9 - - - - - - - - - -
23/01:00am 17.9 N 11 14 - - - - - - - - - -
23/12:30am 18.0 N 13 16 - - - - - - - - - -
23/12:00am 18.2 N 14 17 - - - - - - - - - -
 
Date/Time
EDT
Temp

°C
Wind Pressure Rain
since 9am
mm
Weather Cloud Vis
km
Sea
Height
m
Swell
Dir
 
Speed
knots
Gust
knots
hPa Trend Height
m
Period
s
Dir
22/11:30pm 18.4 N 14 21 - - - - - - - - - -
22/11:00pm 18.6 N 19 22 - - - - - - - - - -
22/10:30pm 18.7 N 19 23 - - - - - - - - - -
22/10:00pm 18.7 NNE 18 22 - - - - - - - - - -
22/09:30pm 18.8 NNE 18 23 - - - - - - - - - -
22/09:00pm 18.8 NNE 18 21 - - - - - - - - - -

Other Formats:

Comma delimited format used in spreadsheet applications
http://www.bom.gov.au/fwo/IDN60701/IDN60701.95766.axf

JavaScript Object Notation format (JSON) in row-major order
http://www.bom.gov.au/fwo/IDN60701/IDN60701.95766.json